Time;durP1;ratioP1;P1;durP2;ratioP2;P2;SDS_P1;SDS_P2;PMS_P1;PMS_P2;Temp;Humidity;BMP_temperature;BMP_pressure;BME280_temperature;BME280_humidity;BME280_pressure;Samples;Min_cycle;Max_cycle;Signal;HPM_P1;HPM_P2
2023/03/04 00:01:35;;;;;;;210.73;81.35;;;5.50;99.90;;;;;;5056601;28;20057;-63
2023/03/04 00:04:01;;;;;;;209.18;80.72;;;5.50;99.90;;;;;;5056509;28;20082;-64
2023/03/04 00:06:27;;;;;;;200.07;78.43;;;5.50;99.90;;;;;;5056380;28;20032;-64
2023/03/04 00:08:53;;;;;;;183.00;82.65;;;5.40;99.90;;;;;;5056388;28;20516;-63
2023/03/04 00:11:19;;;;;;;204.05;90.72;;;5.40;99.90;;;;;;5056416;28;20033;-63
2023/03/04 00:13:45;;;;;;;197.30;87.22;;;5.40;99.90;;;;;;5056463;28;20024;-63
2023/03/04 00:16:11;;;;;;;180.65;77.38;;;5.40;99.90;;;;;;5056304;28;20031;-63
2023/03/04 00:18:37;;;;;;;176.85;75.13;;;5.40;99.90;;;;;;5056124;28;20036;-63
2023/03/04 00:21:03;;;;;;;163.10;72.88;;;5.40;99.90;;;;;;5056288;28;20033;-63
2023/03/04 00:23:29;;;;;;;162.90;73.70;;;5.40;99.90;;;;;;5056201;28;20094;-63
2023/03/04 00:25:55;;;;;;;163.65;74.05;;;5.50;99.90;;;;;;5056088;28;20116;-63
2023/03/04 00:28:21;;;;;;;169.07;73.30;;;5.40;99.90;;;;;;5056028;28;20105;-63
2023/03/04 00:30:46;;;;;;;158.57;71.70;;;5.30;99.90;;;;;;5056160;28;20021;-63
2023/03/04 00:33:12;;;;;;;158.90;72.78;;;5.30;99.90;;;;;;5038246;28;20032;-64
2023/03/04 00:35:39;;;;;;;176.55;75.53;;;5.40;99.90;;;;;;5055980;28;20421;-63
2023/03/04 00:38:05;;;;;;;160.45;72.63;;;5.40;99.90;;;;;;5056047;28;20063;-63
2023/03/04 00:40:31;;;;;;;167.02;72.93;;;5.40;99.90;;;;;;5037912;28;20040;-63
2023/03/04 00:42:56;;;;;;;170.15;74.28;;;5.40;99.90;;;;;;5055674;28;20431;-63
2023/03/04 00:45:22;;;;;;;165.93;75.90;;;5.30;99.90;;;;;;5055754;28;20029;-63
2023/03/04 00:47:48;;;;;;;160.45;73.28;;;5.40;99.90;;;;;;5055717;28;20044;-63
2023/03/04 00:50:14;;;;;;;154.52;69.43;;;5.30;99.90;;;;;;5037908;28;20062;-63
2023/03/04 00:52:41;;;;;;;153.73;69.72;;;5.40;99.90;;;;;;5055628;28;20064;-63
2023/03/04 00:55:08;;;;;;;180.25;75.13;;;5.40;99.90;;;;;;5037530;28;20121;-63
2023/03/04 00:57:34;;;;;;;171.70;71.53;;;5.40;99.90;;;;;;5055662;28;20538;-63
2023/03/04 01:00:00;;;;;;;153.23;71.95;;;5.30;99.90;;;;;;5055526;28;20087;-63
2023/03/04 01:02:26;;;;;;;154.57;70.72;;;5.30;99.90;;;;;;5055068;28;20049;-63
2023/03/04 01:04:52;;;;;;;166.27;71.65;;;5.30;99.90;;;;;;5037603;28;20040;-63
2023/03/04 01:07:18;;;;;;;164.05;72.40;;;5.20;99.90;;;;;;5037499;28;20037;-63
2023/03/04 01:09:44;;;;;;;145.70;65.78;;;5.30;99.90;;;;;;5037357;28;20383;-63
2023/03/04 01:12:10;;;;;;;142.25;65.53;;;5.30;99.90;;;;;;5055153;28;20110;-63
2023/03/04 01:14:36;;;;;;;143.18;62.67;;;5.30;99.90;;;;;;5037421;28;20114;-63
2023/03/04 01:17:02;;;;;;;146.15;65.65;;;5.40;99.90;;;;;;5037202;28;20033;-63
2023/03/04 01:19:28;;;;;;;148.05;67.63;;;5.40;99.90;;;;;;5048428;28;20445;-63
2023/03/04 01:21:54;;;;;;;155.18;68.38;;;5.40;99.90;;;;;;5033853;28;20045;-63
2023/03/04 01:24:21;;;;;;;151.50;68.38;;;5.30;99.90;;;;;;5035119;28;20124;-63
2023/03/04 01:26:47;;;;;;;146.75;66.63;;;5.30;99.90;;;;;;5035199;28;20025;-63
2023/03/04 01:29:13;;;;;;;151.57;68.75;;;5.40;99.90;;;;;;5033776;28;20036;-63
2023/03/04 01:31:39;;;;;;;136.57;61.83;;;5.40;99.90;;;;;;5033722;28;20092;-63
2023/03/04 01:34:05;;;;;;;136.52;62.72;;;5.40;99.90;;;;;;5035097;28;20026;-63
2023/03/04 01:36:31;;;;;;;131.60;59.90;;;5.40;99.90;;;;;;5034970;28;20033;-63
2023/03/04 01:38:58;;;;;;;125.60;57.63;;;5.40;99.90;;;;;;5042110;28;20044;-63
2023/03/04 01:41:25;;;;;;;149.25;63.20;;;5.40;99.90;;;;;;5054770;28;20048;-63
2023/03/04 01:43:53;;;;;;;144.63;64.03;;;5.40;99.90;;;;;;5054730;28;20033;-64
2023/03/04 01:46:20;;;;;;;154.68;66.50;;;5.40;99.90;;;;;;5054629;28;20033;-63
2023/03/04 01:48:46;;;;;;;156.45;65.15;;;5.30;99.90;;;;;;5054780;28;20021;-63
2023/03/04 01:51:17;;;;;;;162.48;66.40;;;5.30;99.90;;;;;;5054489;28;20032;-63
2023/03/04 01:53:46;;;;;;;164.52;66.47;;;5.40;99.90;;;;;;5036847;28;20281;-63
2023/03/04 01:56:17;;;;;;;177.57;77.38;;;5.40;99.90;;;;;;5036695;28;20033;-63
2023/03/04 01:58:43;;;;;;;198.35;84.55;;;5.30;99.90;;;;;;5054404;28;20037;-63
2023/03/04 02:01:12;;;;;;;192.80;82.05;;;5.30;99.90;;;;;;5054492;28;20552;-63
2023/03/04 02:03:39;;;;;;;198.45;84.45;;;5.30;99.90;;;;;;5054258;28;20029;-63
2023/03/04 02:06:05;;;;;;;216.85;88.70;;;5.30;99.90;;;;;;5036494;28;20050;-63
2023/03/04 02:08:31;;;;;;;204.30;86.90;;;5.30;99.90;;;;;;5036668;28;20033;-63
2023/03/04 02:10:58;;;;;;;221.43;87.50;;;5.30;99.90;;;;;;5055199;28;20443;-63
2023/03/04 02:13:24;;;;;;;225.80;96.32;;;5.30;99.90;;;;;;5055059;28;20033;-63
2023/03/04 02:15:50;;;;;;;226.25;97.63;;;5.20;99.90;;;;;;5037151;28;20051;-63
2023/03/04 02:18:22;;;;;;;226.80;94.13;;;5.20;99.90;;;;;;5054981;28;20036;-63
2023/03/04 02:20:57;;;;;;;217.15;94.53;;;5.20;99.90;;;;;;5055074;28;20037;-63
2023/03/04 02:23:28;;;;;;;208.98;87.32;;;5.20;99.90;;;;;;5036914;28;20063;-63
2023/03/04 02:26:18;;;;;;;211.23;90.18;;;5.20;99.90;;;;;;5054926;28;20018;-63
2023/03/04 02:28:48;;;;;;;220.02;94.90;;;5.20;99.90;;;;;;5036928;28;20032;-63
2023/03/04 02:31:37;;;;;;;220.93;94.75;;;5.20;99.90;;;;;;5056670;28;20029;-63
2023/03/04 02:34:09;;;;;;;227.00;95.35;;;5.20;99.90;;;;;;5041036;28;20083;-63
2023/03/04 02:36:36;;;;;;;238.35;100.60;;;5.10;99.90;;;;;;5059024;28;20060;-63
2023/03/04 02:39:09;;;;;;;241.20;101.18;;;5.20;99.90;;;;;;5040781;28;20075;-63
2023/03/04 02:41:36;;;;;;;230.57;98.15;;;5.20;99.90;;;;;;5037446;28;20128;-63
2023/03/04 02:44:02;;;;;;;227.50;101.28;;;5.10;99.90;;;;;;5038946;28;20040;-63
2023/03/04 02:46:28;;;;;;;227.15;94.07;;;5.10;99.90;;;;;;5034079;28;20437;-64
2023/03/04 02:48:54;;;;;;;218.60;95.53;;;5.20;99.90;;;;;;5019035;28;20033;-63
2023/03/04 02:51:21;;;;;;;235.98;98.72;;;5.30;99.90;;;;;;5019099;28;20030;-63
2023/03/04 02:53:47;;;;;;;216.00;95.05;;;5.20;99.90;;;;;;5034119;28;20068;-63
2023/03/04 02:56:13;;;;;;;216.25;95.72;;;5.30;99.90;;;;;;5033867;28;20030;-63
2023/03/04 02:58:40;;;;;;;216.70;94.10;;;5.30;99.90;;;;;;5018963;28;20098;-63
2023/03/04 03:01:08;;;;;;;227.23;96.00;;;5.30;99.90;;;;;;5018913;28;20030;-63
2023/03/04 03:03:34;;;;;;;235.70;97.53;;;5.30;99.90;;;;;;5018761;28;20053;-63
2023/03/04 03:06:00;;;;;;;235.25;96.18;;;5.30;99.90;;;;;;5033940;28;20030;-63
2023/03/04 03:08:26;;;;;;;228.18;93.22;;;5.20;99.90;;;;;;5018756;28;20458;-63
2023/03/04 03:10:53;;;;;;;233.55;94.28;;;5.30;99.90;;;;;;5033759;28;20034;-63
2023/03/04 03:13:20;;;;;;;226.73;94.25;;;5.20;99.90;;;;;;5017395;28;20037;-63
2023/03/04 03:15:46;;;;;;;238.95;98.63;;;5.20;99.90;;;;;;5033766;28;20515;-63
2023/03/04 03:18:14;;;;;;;234.73;92.60;;;5.00;99.90;;;;;;5033472;28;20030;-63
2023/03/04 03:20:41;;;;;;;237.25;92.85;;;5.00;99.90;;;;;;5018484;28;20113;-63
2023/03/04 03:23:08;;;;;;;228.95;93.78;;;5.00;99.90;;;;;;5016953;28;20117;-64
2023/03/04 03:25:34;;;;;;;230.10;94.05;;;5.10;99.90;;;;;;5018398;28;20029;-63
2023/03/04 03:28:00;;;;;;;239.77;94.85;;;5.10;99.90;;;;;;5018410;28;20464;-63
2023/03/04 03:30:26;;;;;;;231.20;90.47;;;4.90;99.90;;;;;;5018338;28;20030;-64
2023/03/04 03:32:52;;;;;;;232.40;92.13;;;5.00;99.90;;;;;;5016922;28;20040;-63
2023/03/04 03:35:18;;;;;;;247.13;94.15;;;5.00;99.90;;;;;;5018117;28;20049;-63
2023/03/04 03:37:44;;;;;;;235.63;90.97;;;5.00;99.90;;;;;;5016760;28;20349;-63
2023/03/04 03:40:11;;;;;;;221.77;88.75;;;5.10;99.90;;;;;;5035362;28;20029;-63
2023/03/04 03:42:37;;;;;;;225.68;91.03;;;5.10;99.90;;;;;;5051364;28;20065;-63
2023/03/04 03:45:03;;;;;;;244.80;94.00;;;5.10;99.90;;;;;;5057550;28;20699;-63
2023/03/04 03:47:29;;;;;;;241.73;93.93;;;5.20;99.90;;;;;;5057754;28;20025;-63
2023/03/04 03:49:55;;;;;;;245.35;92.70;;;5.10;99.90;;;;;;5057603;28;20028;-63
2023/03/04 03:52:21;;;;;;;219.07;89.00;;;5.10;99.90;;;;;;5057682;28;20407;-63
2023/03/04 03:54:47;;;;;;;238.98;92.22;;;5.20;99.90;;;;;;5057640;28;20509;-63
2023/03/04 03:57:13;;;;;;;252.85;92.60;;;5.10;99.90;;;;;;5057564;28;20033;-63
2023/03/04 03:59:39;;;;;;;225.50;88.53;;;5.10;99.90;;;;;;5057444;28;20135;-63
2023/03/04 04:02:05;;;;;;;224.15;85.82;;;5.20;99.90;;;;;;5057478;28;20036;-63
2023/03/04 04:04:31;;;;;;;225.77;84.75;;;5.20;99.90;;;;;;5057338;28;20037;-63
2023/03/04 04:06:56;;;;;;;227.98;85.25;;;5.10;99.90;;;;;;5057427;28;20021;-63
2023/03/04 04:09:22;;;;;;;224.52;83.63;;;5.20;99.90;;;;;;5057262;28;20374;-63
2023/03/04 04:11:48;;;;;;;232.30;87.35;;;5.30;99.90;;;;;;5057457;28;20049;-63
2023/03/04 04:14:14;;;;;;;227.98;88.03;;;5.20;99.90;;;;;;5057226;28;20482;-63
2023/03/04 04:16:40;;;;;;;228.27;86.85;;;5.20;99.90;;;;;;5057108;28;20028;-63
2023/03/04 04:19:06;;;;;;;233.90;95.57;;;5.10;99.90;;;;;;5057059;28;20429;-63
2023/03/04 04:21:33;;;;;;;241.75;90.90;;;5.20;99.90;;;;;;5057127;28;20031;-63
2023/03/04 04:23:58;;;;;;;252.02;95.07;;;5.30;99.90;;;;;;5057109;28;20112;-63
2023/03/04 04:26:24;;;;;;;234.43;91.18;;;5.20;99.90;;;;;;5057101;28;20056;-63
2023/03/04 04:28:50;;;;;;;231.23;94.10;;;5.30;99.90;;;;;;5056913;28;20032;-63
2023/03/04 04:31:16;;;;;;;242.25;92.93;;;5.30;99.90;;;;;;5057077;28;20032;-63
2023/03/04 04:33:42;;;;;;;229.73;84.28;;;5.20;99.90;;;;;;5056784;28;20035;-63
2023/03/04 04:36:14;;;;;;;234.43;85.85;;;5.30;99.90;;;;;;5056831;28;20379;-62
2023/03/04 04:38:39;;;;;;;248.15;89.15;;;5.30;99.90;;;;;;5056721;28;20032;-63
2023/03/04 04:41:13;;;;;;;266.65;94.65;;;5.20;99.90;;;;;;5056555;28;20375;-62
2023/03/04 04:43:38;;;;;;;246.77;90.95;;;5.10;99.90;;;;;;5056495;28;20064;-63
2023/03/04 04:46:04;;;;;;;237.25;90.07;;;5.10;99.90;;;;;;5056556;28;20028;-63
2023/03/04 04:48:30;;;;;;;249.90;91.47;;;5.20;99.90;;;;;;5056573;28;20033;-63
2023/03/04 04:50:56;;;;;;;250.23;95.18;;;5.20;99.90;;;;;;5056504;28;20063;-63
2023/03/04 04:53:22;;;;;;;267.67;96.88;;;5.20;99.90;;;;;;5055415;28;20037;-62
2023/03/04 04:55:48;;;;;;;254.75;94.13;;;5.20;99.90;;;;;;5056322;28;20036;-63
2023/03/04 04:58:14;;;;;;;261.70;96.13;;;5.20;99.90;;;;;;5056377;28;20424;-63
2023/03/04 05:00:40;;;;;;;255.90;90.78;;;5.30;99.90;;;;;;5056206;28;20090;-63
2023/03/04 05:03:06;;;;;;;251.80;89.70;;;5.20;99.90;;;;;;5056201;28;20036;-62
2023/03/04 05:05:32;;;;;;;252.73;92.90;;;5.20;99.90;;;;;;5056222;28;20040;-63
2023/03/04 05:07:57;;;;;;;251.23;93.13;;;5.20;99.90;;;;;;5056230;28;20021;-63
2023/03/04 05:10:23;;;;;;;250.85;94.28;;;5.20;99.90;;;;;;5056097;28;20020;-63
2023/03/04 05:12:49;;;;;;;265.73;95.43;;;5.20;99.90;;;;;;5056078;28;20465;-63
2023/03/04 05:15:16;;;;;;;295.38;101.63;;;5.10;99.90;;;;;;5055866;28;20045;-63
2023/03/04 05:17:41;;;;;;;252.13;94.95;;;5.10;99.90;;;;;;5055760;28;20037;-63
2023/03/04 05:20:09;;;;;;;277.10;100.15;;;5.00;99.90;;;;;;5056036;28;20425;-63
2023/03/04 05:22:34;;;;;;;287.58;101.38;;;5.00;99.90;;;;;;5055880;28;20056;-63
2023/03/04 05:25:01;;;;;;;270.08;99.00;;;5.10;99.90;;;;;;5055823;28;20056;-63
2023/03/04 05:27:27;;;;;;;246.65;91.47;;;5.10;99.90;;;;;;5055859;28;20028;-63
2023/03/04 05:29:54;;;;;;;294.17;104.00;;;5.10;99.90;;;;;;5055678;28;20112;-63
2023/03/04 05:32:20;;;;;;;258.98;96.45;;;5.10;99.90;;;;;;5055723;28;20360;-63
2023/03/04 05:34:46;;;;;;;267.52;95.97;;;5.00;99.90;;;;;;5055662;28;20444;-63
2023/03/04 05:37:12;;;;;;;284.38;99.55;;;5.00;99.90;;;;;;5055589;28;20066;-63
2023/03/04 05:39:38;;;;;;;301.45;101.57;;;5.10;99.90;;;;;;5055431;28;20128;-63
2023/03/04 05:42:04;;;;;;;288.25;101.72;;;5.10;99.90;;;;;;5055486;28;20048;-63
2023/03/04 05:44:30;;;;;;;279.38;98.88;;;5.10;99.90;;;;;;5055401;28;20120;-63
2023/03/04 05:46:56;;;;;;;243.18;89.40;;;5.00;99.90;;;;;;5055434;28;20119;-63
2023/03/04 05:49:22;;;;;;;238.80;88.68;;;5.00;99.90;;;;;;5055471;28;20021;-63
2023/03/04 05:51:48;;;;;;;311.92;99.88;;;5.00;99.90;;;;;;5055383;28;20025;-63
2023/03/04 05:54:14;;;;;;;243.50;90.15;;;5.00;99.90;;;;;;5055427;28;20039;-63
2023/03/04 05:56:40;;;;;;;258.77;94.28;;;5.00;99.90;;;;;;5055357;28;20552;-63
2023/03/04 05:59:05;;;;;;;275.42;99.65;;;5.00;99.90;;;;;;5055265;28;20029;-62
2023/03/04 06:01:31;;;;;;;227.73;87.68;;;5.00;99.90;;;;;;5055302;28;20040;-63
2023/03/04 06:03:57;;;;;;;251.27;95.28;;;5.10;99.90;;;;;;5055284;28;20028;-63
2023/03/04 06:06:23;;;;;;;270.90;103.20;;;5.10;99.90;;;;;;5055053;28;20056;-63
2023/03/04 06:08:49;;;;;;;294.42;103.47;;;5.10;99.90;;;;;;5055108;28;20083;-63
2023/03/04 06:11:15;;;;;;;299.77;107.47;;;5.10;99.90;;;;;;5055224;28;20024;-63
2023/03/04 06:13:41;;;;;;;252.00;100.63;;;5.00;99.90;;;;;;5055149;28;20059;-63
2023/03/04 06:16:08;;;;;;;263.83;106.00;;;5.00;99.90;;;;;;5055035;28;20021;-63
2023/03/04 06:18:34;;;;;;;278.83;107.43;;;5.00;99.90;;;;;;5055055;28;20065;-63
2023/03/04 06:21:02;;;;;;;281.40;108.32;;;5.10;99.90;;;;;;5055196;28;20425;-63
2023/03/04 06:23:29;;;;;;;326.63;114.68;;;5.20;99.90;;;;;;5054977;28;20112;-63
2023/03/04 06:25:57;;;;;;;301.33;110.63;;;5.10;99.90;;;;;;5054994;28;20036;-63
2023/03/04 06:28:23;;;;;;;294.70;112.18;;;5.00;99.90;;;;;;5054962;28;20029;-63
2023/03/04 06:30:53;;;;;;;297.60;110.13;;;5.00;99.90;;;;;;5054985;28;20025;-63
2023/03/04 06:33:19;;;;;;;283.67;109.38;;;4.90;99.90;;;;;;5055082;28;20460;-63
2023/03/04 06:35:45;;;;;;;290.85;107.43;;;5.00;99.90;;;;;;5054831;28;20022;-63
2023/03/04 06:38:11;;;;;;;277.90;105.53;;;5.10;99.90;;;;;;5054934;28;20032;-63
2023/03/04 06:40:37;;;;;;;281.92;108.70;;;5.00;99.90;;;;;;5054903;28;20033;-63
2023/03/04 06:43:03;;;;;;;268.85;103.97;;;5.10;99.90;;;;;;5054609;28;20144;-63
2023/03/04 06:45:29;;;;;;;265.27;105.18;;;5.10;99.90;;;;;;5054874;28;20028;-63
2023/03/04 06:47:55;;;;;;;247.75;95.55;;;5.10;99.90;;;;;;5054703;28;20052;-63
2023/03/04 06:50:21;;;;;;;257.38;100.47;;;5.10;99.90;;;;;;5054740;28;20451;-63
2023/03/04 06:52:48;;;;;;;273.33;104.47;;;5.20;99.90;;;;;;5054867;28;20032;-63
2023/03/04 06:55:14;;;;;;;245.43;94.60;;;5.20;99.90;;;;;;5054756;28;20151;-63
2023/03/04 06:57:40;;;;;;;271.25;99.90;;;5.30;99.90;;;;;;5054717;28;20060;-63
2023/03/04 07:00:06;;;;;;;264.50;99.40;;;5.20;99.90;;;;;;5054703;28;20455;-63
2023/03/04 07:02:32;;;;;;;239.88;90.05;;;5.10;99.90;;;;;;5054573;28;20025;-63
2023/03/04 07:04:58;;;;;;;250.57;93.03;;;5.00;99.90;;;;;;5054608;28;20043;-63
2023/03/04 07:07:25;;;;;;;262.73;95.03;;;5.20;99.90;;;;;;5054713;28;20025;-63
2023/03/04 07:09:51;;;;;;;264.45;93.97;;;5.20;99.90;;;;;;5054729;28;20083;-62
2023/03/04 07:12:17;;;;;;;278.25;92.40;;;5.20;99.90;;;;;;5054646;28;20025;-63
2023/03/04 07:14:43;;;;;;;219.20;81.05;;;5.20;99.90;;;;;;5054624;28;20028;-63
2023/03/04 07:17:09;;;;;;;205.60;73.22;;;5.20;99.90;;;;;;5055843;28;20033;-63
2023/03/04 07:19:35;;;;;;;187.50;70.95;;;5.10;99.90;;;;;;5058130;28;20367;-63
2023/03/04 07:22:00;;;;;;;196.77;72.80;;;5.20;99.90;;;;;;5058299;28;20021;-63
2023/03/04 07:24:26;;;;;;;198.63;74.22;;;5.20;99.90;;;;;;5058066;28;20032;-63
2023/03/04 07:26:52;;;;;;;200.32;78.20;;;5.30;99.90;;;;;;5058052;28;20372;-63
2023/03/04 07:29:18;;;;;;;180.25;65.95;;;5.40;99.90;;;;;;5058100;28;20021;-62
2023/03/04 07:31:44;;;;;;;160.95;59.05;;;5.40;99.90;;;;;;5058011;28;20029;-63
2023/03/04 07:34:13;;;;;;;162.60;56.97;;;5.40;99.90;;;;;;5057953;28;20036;-63
2023/03/04 07:36:39;;;;;;;195.00;65.93;;;5.20;99.90;;;;;;5057849;28;20116;-63
2023/03/04 07:39:06;;;;;;;199.52;67.82;;;5.20;99.90;;;;;;5057706;28;20104;-63
2023/03/04 07:41:35;;;;;;;213.68;75.25;;;5.20;99.90;;;;;;5057323;28;20126;-63
2023/03/04 07:44:01;;;;;;;215.07;80.25;;;5.20;99.90;;;;;;5057719;28;20152;-63
2023/03/04 07:46:28;;;;;;;230.80;82.20;;;5.30;99.90;;;;;;5057646;28;20052;-63
2023/03/04 07:48:54;;;;;;;235.45;81.65;;;5.40;99.90;;;;;;5057596;28;20024;-63
2023/03/04 07:51:22;;;;;;;223.50;76.95;;;5.40;99.90;;;;;;5057680;28;20391;-63
2023/03/04 07:53:51;;;;;;;229.40;80.15;;;5.40;99.90;;;;;;5057554;28;20040;-63
2023/03/04 07:56:21;;;;;;;228.45;77.93;;;5.50;99.90;;;;;;5057651;28;20033;-63
2023/03/04 07:58:47;;;;;;;225.75;76.70;;;5.50;99.90;;;;;;5057541;28;20083;-63
2023/03/04 08:01:20;;;;;;;222.98;75.80;;;5.40;99.90;;;;;;5057347;28;20544;-63
2023/03/04 08:03:46;;;;;;;211.32;71.43;;;5.40;99.90;;;;;;5057396;28;20025;-63
2023/03/04 08:06:15;;;;;;;188.93;63.67;;;5.50;99.90;;;;;;5057395;28;20037;-63
2023/03/04 08:08:41;;;;;;;208.15;68.85;;;5.60;99.90;;;;;;5057292;28;20017;-63
2023/03/04 08:11:10;;;;;;;211.65;72.57;;;5.80;99.90;;;;;;5057370;28;20029;-64
2023/03/04 08:13:36;;;;;;;203.00;70.97;;;5.70;99.90;;;;;;5057316;28;20485;-63
2023/03/04 08:16:03;;;;;;;192.73;68.30;;;5.80;99.90;;;;;;5057233;28;20029;-63
2023/03/04 08:18:29;;;;;;;231.38;72.95;;;5.70;99.90;;;;;;5056985;28;20469;-63
2023/03/04 08:20:55;;;;;;;236.90;79.90;;;5.70;99.90;;;;;;5057171;28;20035;-63
2023/03/04 08:23:21;;;;;;;203.40;70.38;;;5.70;99.90;;;;;;5056431;28;20029;-63
2023/03/04 08:25:47;;;;;;;212.80;72.25;;;5.70;99.90;;;;;;5057216;28;20020;-63
2023/03/04 08:28:14;;;;;;;226.63;82.88;;;5.80;99.90;;;;;;5056909;28;20486;-63
2023/03/04 08:30:41;;;;;;;225.65;81.07;;;5.80;99.90;;;;;;5057073;28;20021;-63
2023/03/04 08:33:08;;;;;;;240.80;83.53;;;5.90;99.90;;;;;;5056910;28;20398;-63
2023/03/04 08:35:37;;;;;;;234.63;85.30;;;6.00;99.90;;;;;;5056889;28;20032;-64
2023/03/04 08:38:04;;;;;;;216.60;80.33;;;6.10;99.90;;;;;;5056841;28;20025;-64
2023/03/04 08:40:30;;;;;;;230.35;79.50;;;6.10;99.90;;;;;;5056869;28;20402;-63
2023/03/04 08:42:57;;;;;;;238.23;80.68;;;6.20;99.90;;;;;;5056330;28;20079;-63
2023/03/04 08:45:24;;;;;;;234.48;81.63;;;6.20;99.90;;;;;;5056583;28;20025;-63
2023/03/04 08:47:50;;;;;;;257.70;85.78;;;6.20;99.90;;;;;;5056244;28;20498;-63
2023/03/04 08:50:16;;;;;;;242.35;80.35;;;6.30;99.90;;;;;;5055933;28;20121;-63
2023/03/04 08:52:42;;;;;;;237.95;81.68;;;6.30;99.90;;;;;;5055821;28;20463;-63
2023/03/04 08:55:09;;;;;;;232.50;80.32;;;6.40;99.90;;;;;;5055789;28;20688;-64
2023/03/04 08:57:34;;;;;;;244.02;85.32;;;6.30;99.90;;;;;;5056002;28;20060;-63
2023/03/04 09:00:00;;;;;;;254.45;86.97;;;6.20;99.90;;;;;;5055588;28;20068;-64
2023/03/04 09:02:26;;;;;;;260.52;83.43;;;6.30;99.90;;;;;;5055352;28;20343;-63
2023/03/04 09:04:52;;;;;;;246.07;86.82;;;6.40;99.90;;;;;;5055461;28;20096;-63
2023/03/04 09:07:18;;;;;;;252.02;87.80;;;6.40;99.90;;;;;;5055514;28;20025;-64
2023/03/04 09:09:44;;;;;;;222.35;78.00;;;6.50;99.90;;;;;;5055440;28;20089;-64
2023/03/04 09:12:10;;;;;;;206.43;72.18;;;6.60;99.90;;;;;;5055178;28;20064;-64
2023/03/04 09:14:36;;;;;;;206.32;70.05;;;6.60;99.90;;;;;;5055182;28;20023;-64
2023/03/04 09:17:04;;;;;;;211.70;71.25;;;6.60;99.90;;;;;;5055308;28;20502;-63
2023/03/04 09:19:30;;;;;;;186.88;68.00;;;6.60;99.90;;;;;;5055080;28;20032;-63
2023/03/04 09:21:58;;;;;;;161.85;62.97;;;6.70;99.90;;;;;;5055200;28;20027;-64
2023/03/04 09:24:25;;;;;;;165.45;61.05;;;6.80;99.90;;;;;;5054831;28;20064;-63
2023/03/04 09:26:53;;;;;;;159.90;61.80;;;6.80;99.90;;;;;;5055067;28;20390;-64
2023/03/04 09:29:19;;;;;;;152.55;60.25;;;6.90;99.90;;;;;;5055147;28;20485;-64
2023/03/04 09:31:44;;;;;;;134.15;54.63;;;7.00;99.90;;;;;;5054763;28;20044;-64
2023/03/04 09:34:11;;;;;;;148.13;56.53;;;7.00;99.90;;;;;;5054826;28;20434;-64
2023/03/04 09:36:36;;;;;;;163.20;60.72;;;7.00;99.90;;;;;;5054916;28;20051;-64
2023/03/04 09:39:04;;;;;;;161.80;56.85;;;7.10;99.90;;;;;;5054780;28;20111;-63
2023/03/04 09:41:41;;;;;;;145.70;53.75;;;7.20;99.90;;;;;;5054422;28;20509;-64
2023/03/04 09:44:13;;;;;;;159.13;54.78;;;7.20;99.90;;;;;;5054512;28;20037;-64
2023/03/04 09:46:42;;;;;;;138.85;53.00;;;7.20;99.90;;;;;;5034869;28;20497;-64
2023/03/04 09:49:11;;;;;;;138.98;53.25;;;7.20;99.90;;;;;;5034741;28;20049;-64
2023/03/04 09:52:02;;;;;;;163.18;59.08;;;7.40;99.90;;;;;;5034640;28;20033;-64
2023/03/04 09:54:50;;;;;;;165.88;56.97;;;7.40;99.90;;;;;;5034756;28;20057;-64
2023/03/04 09:57:38;;;;;;;138.57;50.25;;;7.60;99.90;;;;;;5034641;28;20434;-64
2023/03/04 10:00:18;;;;;;;165.65;57.05;;;7.70;99.90;;;;;;5034592;28;20025;-64
2023/03/04 10:03:12;;;;;;;168.68;53.60;;;7.80;99.90;;;;;;5034411;28;20040;-64
2023/03/04 10:06:19;;;;;;;130.10;48.45;;;7.80;99.90;;;;;;5034468;28;20038;-64
2023/03/04 10:08:57;;;;;;;152.77;51.22;;;7.80;99.90;;;;;;4973252;28;20031;-64
2023/03/04 10:11:25;;;;;;;163.23;54.28;;;7.80;99.90;;;;;;4973203;28;20571;-64
2023/03/04 10:14:21;;;;;;;144.27;50.42;;;7.90;99.90;;;;;;4973199;28;20030;-64
2023/03/04 10:16:58;;;;;;;144.85;51.22;;;7.80;99.90;;;;;;4964772;28;20355;-64
2023/03/04 10:19:56;;;;;;;165.57;54.47;;;7.80;99.90;;;;;;4990499;28;20038;-64
2023/03/04 10:22:36;;;;;;;137.20;50.45;;;7.60;99.90;;;;;;4992565;28;20137;-64
2023/03/04 10:25:23;;;;;;;127.03;49.08;;;7.60;99.90;;;;;;4992441;28;20049;-64
2023/03/04 10:28:14;;;;;;;137.88;48.97;;;7.60;99.90;;;;;;4992565;28;20030;-64
2023/03/04 10:31:03;;;;;;;126.47;45.05;;;7.60;99.90;;;;;;4992504;28;20034;-64
2023/03/04 10:33:33;;;;;;;126.18;47.67;;;7.80;99.90;;;;;;4992663;28;20109;-64
2023/03/04 10:36:05;;;;;;;125.32;45.70;;;7.90;99.90;;;;;;4992417;28;20575;-64
2023/03/04 10:38:40;;;;;;;137.63;48.95;;;8.10;99.90;;;;;;4988880;28;20031;-64
2023/03/04 10:41:14;;;;;;;124.78;46.38;;;8.00;99.90;;;;;;4972864;28;20524;-64
2023/03/04 10:43:44;;;;;;;107.13;42.40;;;8.10;99.90;;;;;;5044460;28;20103;-64
2023/03/04 10:46:11;;;;;;;128.43;46.40;;;8.00;99.90;;;;;;5053900;28;20029;-64
2023/03/04 10:48:40;;;;;;;136.40;47.22;;;7.80;99.90;;;;;;5053962;28;20021;-64
2023/03/04 10:51:18;;;;;;;141.82;47.20;;;8.00;99.90;;;;;;5053925;28;20017;-64
2023/03/04 10:53:47;;;;;;;117.50;44.53;;;8.30;99.90;;;;;;5057961;28;20372;-64
2023/03/04 10:56:41;;;;;;;145.80;49.00;;;8.30;99.90;;;;;;5057571;28;20387;-64
2023/03/04 10:59:35;;;;;;;125.82;47.40;;;8.50;99.90;;;;;;5057743;28;20562;-64
2023/03/04 11:02:16;;;;;;;147.85;49.88;;;8.70;99.90;;;;;;5057511;28;20029;-64
2023/03/04 11:04:47;;;;;;;146.93;49.03;;;8.70;99.90;;;;;;5057639;28;20064;-64
2023/03/04 11:07:14;;;;;;;129.13;48.13;;;8.70;99.90;;;;;;5057712;28;20029;-64
2023/03/04 11:09:43;;;;;;;152.55;54.45;;;8.90;99.90;;;;;;5057526;28;20025;-64
2023/03/04 11:12:15;;;;;;;152.23;54.45;;;8.90;99.90;;;;;;5057740;28;20086;-64
2023/03/04 11:14:48;;;;;;;164.73;56.75;;;8.80;99.90;;;;;;5057588;28;20025;-64
2023/03/04 11:17:17;;;;;;;196.77;60.38;;;8.90;99.90;;;;;;5057485;28;20036;-64
2023/03/04 11:19:54;;;;;;;219.40;62.13;;;8.90;99.90;;;;;;5057436;28;20139;-64
2023/03/04 11:22:22;;;;;;;212.82;63.13;;;9.10;99.90;;;;;;5057387;28;20033;-64
2023/03/04 11:25:00;;;;;;;237.43;64.38;;;9.10;99.90;;;;;;5057326;28;20036;-65
2023/03/04 11:27:31;;;;;;;196.40;62.17;;;9.00;99.90;;;;;;5057363;28;20386;-64
2023/03/04 11:30:16;;;;;;;208.43;62.45;;;9.00;99.90;;;;;;5057317;28;20025;-64
2023/03/04 11:32:46;;;;;;;222.85;60.95;;;9.00;99.90;;;;;;5057184;28;20059;-64
2023/03/04 11:35:12;;;;;;;;;;;8.70;99.90;;;;;;5057548;28;20025;-65
2023/03/04 11:38:04;;;;;;;207.70;63.00;;;8.90;99.90;;;;;;5057021;28;20004;-64
2023/03/04 11:40:49;;;;;;;232.88;68.78;;;9.00;99.90;;;;;;5037406;28;20029;-64
2023/03/04 11:43:24;;;;;;;251.55;74.63;;;9.20;99.90;;;;;;5036786;28;20080;-64
2023/03/04 11:46:05;;;;;;;290.88;81.25;;;9.20;99.90;;;;;;5050159;28;20505;-64
2023/03/04 11:48:55;;;;;;;319.55;87.05;;;9.20;99.90;;;;;;5056974;28;20029;-64
2023/03/04 11:51:34;;;;;;;322.75;87.18;;;9.20;99.90;;;;;;5056893;28;20025;-64
2023/03/04 11:54:14;;;;;;;313.52;89.00;;;9.20;99.90;;;;;;5057028;28;20039;-64
2023/03/04 11:56:48;;;;;;;291.83;82.35;;;9.20;99.90;;;;;;5056755;28;20036;-64
2023/03/04 11:59:34;;;;;;;310.63;92.32;;;9.20;99.90;;;;;;5056848;28;20025;-64
2023/03/04 12:02:03;;;;;;;319.15;93.72;;;9.30;99.90;;;;;;5056565;28;20033;-65
2023/03/04 12:04:50;;;;;;;350.52;93.25;;;9.40;99.90;;;;;;5056405;28;20040;-65
2023/03/04 12:07:31;;;;;;;319.48;87.43;;;9.30;99.90;;;;;;5056620;28;20105;-65
2023/03/04 12:10:00;;;;;;;;;;;9.30;99.90;;;;;;5056739;28;20032;-65
2023/03/04 12:12:40;;;;;;;371.80;95.85;;;9.20;99.90;;;;;;5056517;28;19913;-64
2023/03/04 12:15:19;;;;;;;378.35;99.22;;;9.30;99.90;;;;;;5056625;28;20025;-65
2023/03/04 12:18:10;;;;;;;385.55;99.03;;;9.30;99.90;;;;;;5056209;28;20032;-65
2023/03/04 12:21:09;;;;;;;399.48;101.25;;;9.50;99.90;;;;;;5056387;28;20033;-65
2023/03/04 12:23:59;;;;;;;408.77;103.15;;;9.50;99.90;;;;;;5056366;28;20025;-65
2023/03/04 12:26:43;;;;;;;379.10;98.03;;;9.50;99.90;;;;;;5056192;28;20032;-64
2023/03/04 12:29:17;;;;;;;422.27;105.65;;;9.50;99.90;;;;;;5056222;28;20017;-64
2023/03/04 12:31:55;;;;;;;427.88;109.47;;;9.50;99.90;;;;;;5056041;28;20391;-64
2023/03/04 12:34:39;;;;;;;463.85;119.93;;;9.60;99.90;;;;;;5056036;28;20107;-65
2023/03/04 12:37:14;;;;;;;420.20;108.35;;;9.60;99.90;;;;;;5055896;28;20029;-64